sensor_id;sensor_type;location;lat;lon;timestamp;P1;durP1;ratioP1;P2;durP2;ratioP2
48881;SDS011;57063;51.406;-2.402;2023-07-13T00:01:24;5.78;;;1.88;;
48881;SDS011;57063;51.406;-2.402;2023-07-13T00:03:50;9.63;;;1.73;;
48881;SDS011;57063;51.406;-2.402;2023-07-13T00:06:15;5.20;;;1.88;;
48881;SDS011;57063;51.406;-2.402;2023-07-13T00:08:41;6.07;;;1.63;;
48881;SDS011;57063;51.406;-2.402;2023-07-13T00:11:06;6.28;;;2.17;;
48881;SDS011;57063;51.406;-2.402;2023-07-13T00:13:31;6.90;;;1.70;;
48881;SDS011;57063;51.406;-2.402;2023-07-13T00:15:57;4.90;;;1.60;;
48881;SDS011;57063;51.406;-2.402;2023-07-13T00:18:23;6.10;;;1.88;;
48881;SDS011;57063;51.406;-2.402;2023-07-13T00:20:49;5.50;;;1.90;;
48881;SDS011;57063;51.406;-2.402;2023-07-13T00:23:15;8.05;;;1.63;;
48881;SDS011;57063;51.406;-2.402;2023-07-13T00:25:42;3.00;;;1.48;;
48881;SDS011;57063;51.406;-2.402;2023-07-13T00:28:07;5.78;;;1.90;;
48881;SDS011;57063;51.406;-2.402;2023-07-13T00:30:33;4.05;;;1.55;;
48881;SDS011;57063;51.406;-2.402;2023-07-13T00:32:58;5.47;;;1.80;;
48881;SDS011;57063;51.406;-2.402;2023-07-13T00:35:26;7.43;;;1.40;;
48881;SDS011;57063;51.406;-2.402;2023-07-13T00:37:52;8.05;;;1.73;;
48881;SDS011;57063;51.406;-2.402;2023-07-13T00:40:17;4.35;;;1.60;;
48881;SDS011;57063;51.406;-2.402;2023-07-13T00:42:43;4.93;;;1.90;;
48881;SDS011;57063;51.406;-2.402;2023-07-13T00:47:36;6.68;;;2.03;;
48881;SDS011;57063;51.406;-2.402;2023-07-13T00:50:03;6.05;;;1.77;;
48881;SDS011;57063;51.406;-2.402;2023-07-13T00:52:31;9.68;;;2.30;;
48881;SDS011;57063;51.406;-2.402;2023-07-13T00:54:57;9.57;;;1.98;;
48881;SDS011;57063;51.406;-2.402;2023-07-13T00:57:23;5.18;;;1.85;;
48881;SDS011;57063;51.406;-2.402;2023-07-13T00:59:52;8.52;;;1.83;;
48881;SDS011;57063;51.406;-2.402;2023-07-13T01:02:22;3.70;;;1.67;;
48881;SDS011;57063;51.406;-2.402;2023-07-13T01:04:49;13.02;;;1.88;;
48881;SDS011;57063;51.406;-2.402;2023-07-13T01:07:14;6.68;;;2.33;;
48881;SDS011;57063;51.406;-2.402;2023-07-13T01:09:40;6.60;;;1.85;;
48881;SDS011;57063;51.406;-2.402;2023-07-13T01:12:06;5.13;;;1.73;;
48881;SDS011;57063;51.406;-2.402;2023-07-13T01:14:32;5.97;;;1.88;;
48881;SDS011;57063;51.406;-2.402;2023-07-13T01:16:57;3.95;;;1.73;;
48881;SDS011;57063;51.406;-2.402;2023-07-13T01:22:00;6.00;;;2.28;;
48881;SDS011;57063;51.406;-2.402;2023-07-13T01:24:27;6.97;;;2.22;;
48881;SDS011;57063;51.406;-2.402;2023-07-13T01:26:52;2.85;;;1.75;;
48881;SDS011;57063;51.406;-2.402;2023-07-13T01:29:17;4.38;;;1.60;;
48881;SDS011;57063;51.406;-2.402;2023-07-13T01:31:43;6.20;;;1.70;;
48881;SDS011;57063;51.406;-2.402;2023-07-13T01:34:09;5.03;;;2.13;;
48881;SDS011;57063;51.406;-2.402;2023-07-13T01:36:35;4.25;;;1.73;;
48881;SDS011;57063;51.406;-2.402;2023-07-13T01:39:01;4.13;;;1.23;;
48881;SDS011;57063;51.406;-2.402;2023-07-13T01:41:27;7.68;;;2.05;;
48881;SDS011;57063;51.406;-2.402;2023-07-13T01:43:52;4.20;;;1.48;;
48881;SDS011;57063;51.406;-2.402;2023-07-13T01:46:17;2.83;;;1.52;;
48881;SDS011;57063;51.406;-2.402;2023-07-13T01:48:43;4.88;;;1.77;;
48881;SDS011;57063;51.406;-2.402;2023-07-13T01:51:08;5.50;;;1.67;;
48881;SDS011;57063;51.406;-2.402;2023-07-13T01:53:33;5.00;;;1.60;;
48881;SDS011;57063;51.406;-2.402;2023-07-13T01:55:59;6.82;;;2.17;;
48881;SDS011;57063;51.406;-2.402;2023-07-13T01:58:24;3.10;;;1.58;;
48881;SDS011;57063;51.406;-2.402;2023-07-13T02:00:50;3.97;;;1.63;;
48881;SDS011;57063;51.406;-2.402;2023-07-13T02:03:16;4.88;;;1.40;;
48881;SDS011;57063;51.406;-2.402;2023-07-13T02:05:43;6.25;;;2.38;;
48881;SDS011;57063;51.406;-2.402;2023-07-13T02:08:09;9.38;;;2.17;;
48881;SDS011;57063;51.406;-2.402;2023-07-13T02:10:34;6.53;;;1.80;;
48881;SDS011;57063;51.406;-2.402;2023-07-13T02:13:00;3.15;;;1.70;;
48881;SDS011;57063;51.406;-2.402;2023-07-13T02:15:25;5.22;;;1.73;;
48881;SDS011;57063;51.406;-2.402;2023-07-13T02:17:50;5.20;;;1.75;;
48881;SDS011;57063;51.406;-2.402;2023-07-13T02:20:16;6.32;;;1.52;;
48881;SDS011;57063;51.406;-2.402;2023-07-13T02:22:41;6.25;;;1.80;;
48881;SDS011;57063;51.406;-2.402;2023-07-13T02:25:07;8.57;;;2.03;;
48881;SDS011;57063;51.406;-2.402;2023-07-13T02:27:32;5.57;;;1.92;;
48881;SDS011;57063;51.406;-2.402;2023-07-13T02:29:58;5.47;;;2.10;;
48881;SDS011;57063;51.406;-2.402;2023-07-13T02:32:23;8.25;;;1.85;;
48881;SDS011;57063;51.406;-2.402;2023-07-13T02:34:50;4.68;;;1.88;;
48881;SDS011;57063;51.406;-2.402;2023-07-13T02:37:17;8.23;;;1.95;;
48881;SDS011;57063;51.406;-2.402;2023-07-13T02:39:42;5.72;;;1.92;;
48881;SDS011;57063;51.406;-2.402;2023-07-13T02:42:08;8.90;;;2.63;;
48881;SDS011;57063;51.406;-2.402;2023-07-13T02:44:33;3.63;;;1.45;;
48881;SDS011;57063;51.406;-2.402;2023-07-13T02:46:58;4.75;;;1.92;;
48881;SDS011;57063;51.406;-2.402;2023-07-13T02:49:24;6.25;;;1.92;;
48881;SDS011;57063;51.406;-2.402;2023-07-13T02:51:49;6.95;;;2.20;;
48881;SDS011;57063;51.406;-2.402;2023-07-13T02:54:16;4.57;;;1.90;;
48881;SDS011;57063;51.406;-2.402;2023-07-13T02:56:41;5.35;;;1.80;;
48881;SDS011;57063;51.406;-2.402;2023-07-13T02:59:08;9.70;;;1.95;;
48881;SDS011;57063;51.406;-2.402;2023-07-13T03:01:34;8.20;;;2.10;;
48881;SDS011;57063;51.406;-2.402;2023-07-13T03:04:00;5.97;;;2.45;;
48881;SDS011;57063;51.406;-2.402;2023-07-13T03:06:25;5.15;;;2.00;;
48881;SDS011;57063;51.406;-2.402;2023-07-13T03:08:55;6.10;;;2.08;;
48881;SDS011;57063;51.406;-2.402;2023-07-13T03:11:20;8.15;;;2.20;;
48881;SDS011;57063;51.406;-2.402;2023-07-13T03:13:46;7.70;;;2.03;;
48881;SDS011;57063;51.406;-2.402;2023-07-13T03:16:13;7.47;;;2.55;;
48881;SDS011;57063;51.406;-2.402;2023-07-13T03:18:41;8.18;;;1.85;;
48881;SDS011;57063;51.406;-2.402;2023-07-13T03:21:06;6.85;;;2.10;;
48881;SDS011;57063;51.406;-2.402;2023-07-13T03:23:32;12.18;;;3.10;;
48881;SDS011;57063;51.406;-2.402;2023-07-13T03:26:01;5.28;;;1.73;;
48881;SDS011;57063;51.406;-2.402;2023-07-13T03:28:31;9.15;;;2.40;;
48881;SDS011;57063;51.406;-2.402;2023-07-13T03:31:05;5.60;;;2.70;;
48881;SDS011;57063;51.406;-2.402;2023-07-13T03:33:38;6.77;;;1.50;;
48881;SDS011;57063;51.406;-2.402;2023-07-13T03:36:04;4.03;;;1.75;;
48881;SDS011;57063;51.406;-2.402;2023-07-13T03:38:31;10.68;;;1.55;;
48881;SDS011;57063;51.406;-2.402;2023-07-13T03:40:56;5.45;;;2.83;;
48881;SDS011;57063;51.406;-2.402;2023-07-13T03:43:22;5.28;;;1.63;;
48881;SDS011;57063;51.406;-2.402;2023-07-13T03:45:47;3.70;;;1.80;;
48881;SDS011;57063;51.406;-2.402;2023-07-13T03:48:13;4.95;;;1.42;;
48881;SDS011;57063;51.406;-2.402;2023-07-13T03:50:39;6.82;;;2.20;;
48881;SDS011;57063;51.406;-2.402;2023-07-13T03:53:04;6.30;;;2.90;;
48881;SDS011;57063;51.406;-2.402;2023-07-13T03:55:30;4.43;;;2.08;;
48881;SDS011;57063;51.406;-2.402;2023-07-13T03:57:59;5.88;;;1.80;;
48881;SDS011;57063;51.406;-2.402;2023-07-13T04:00:25;5.60;;;1.73;;
48881;SDS011;57063;51.406;-2.402;2023-07-13T04:02:51;4.97;;;2.22;;
48881;SDS011;57063;51.406;-2.402;2023-07-13T04:05:16;5.18;;;2.00;;
48881;SDS011;57063;51.406;-2.402;2023-07-13T04:07:42;7.95;;;1.77;;
48881;SDS011;57063;51.406;-2.402;2023-07-13T04:10:08;7.55;;;1.83;;
48881;SDS011;57063;51.406;-2.402;2023-07-13T04:12:33;6.45;;;2.42;;
48881;SDS011;57063;51.406;-2.402;2023-07-13T04:14:59;6.78;;;2.30;;
48881;SDS011;57063;51.406;-2.402;2023-07-13T04:17:24;6.80;;;1.80;;
48881;SDS011;57063;51.406;-2.402;2023-07-13T04:19:50;6.45;;;2.30;;
48881;SDS011;57063;51.406;-2.402;2023-07-13T04:22:15;4.15;;;1.25;;
48881;SDS011;57063;51.406;-2.402;2023-07-13T04:24:40;6.38;;;1.88;;
48881;SDS011;57063;51.406;-2.402;2023-07-13T04:27:06;9.27;;;1.92;;
48881;SDS011;57063;51.406;-2.402;2023-07-13T04:29:32;4.18;;;2.08;;
48881;SDS011;57063;51.406;-2.402;2023-07-13T04:31:57;9.23;;;2.03;;
48881;SDS011;57063;51.406;-2.402;2023-07-13T04:34:22;4.82;;;1.70;;
48881;SDS011;57063;51.406;-2.402;2023-07-13T04:36:49;9.60;;;2.50;;
48881;SDS011;57063;51.406;-2.402;2023-07-13T04:39:15;4.60;;;1.63;;
48881;SDS011;57063;51.406;-2.402;2023-07-13T04:41:40;7.45;;;2.25;;
48881;SDS011;57063;51.406;-2.402;2023-07-13T04:44:06;7.72;;;2.65;;
48881;SDS011;57063;51.406;-2.402;2023-07-13T04:46:31;3.83;;;2.30;;
48881;SDS011;57063;51.406;-2.402;2023-07-13T04:48:56;4.30;;;1.90;;
48881;SDS011;57063;51.406;-2.402;2023-07-13T04:51:22;7.85;;;2.20;;
48881;SDS011;57063;51.406;-2.402;2023-07-13T04:53:48;6.45;;;1.95;;
48881;SDS011;57063;51.406;-2.402;2023-07-13T04:56:13;9.10;;;2.17;;
48881;SDS011;57063;51.406;-2.402;2023-07-13T04:58:39;7.15;;;2.20;;
48881;SDS011;57063;51.406;-2.402;2023-07-13T05:01:05;7.28;;;2.15;;
48881;SDS011;57063;51.406;-2.402;2023-07-13T05:03:31;6.05;;;1.98;;
48881;SDS011;57063;51.406;-2.402;2023-07-13T05:05:57;10.32;;;2.58;;
48881;SDS011;57063;51.406;-2.402;2023-07-13T05:08:24;6.40;;;2.03;;
48881;SDS011;57063;51.406;-2.402;2023-07-13T05:10:50;4.65;;;1.83;;
48881;SDS011;57063;51.406;-2.402;2023-07-13T05:13:15;7.30;;;2.33;;
48881;SDS011;57063;51.406;-2.402;2023-07-13T05:15:41;5.97;;;2.22;;
48881;SDS011;57063;51.406;-2.402;2023-07-13T05:18:06;3.22;;;1.30;;
48881;SDS011;57063;51.406;-2.402;2023-07-13T05:20:31;5.68;;;2.22;;
48881;SDS011;57063;51.406;-2.402;2023-07-13T05:22:57;5.68;;;2.15;;
48881;SDS011;57063;51.406;-2.402;2023-07-13T05:25:22;5.38;;;2.10;;
48881;SDS011;57063;51.406;-2.402;2023-07-13T05:27:48;12.18;;;2.17;;
48881;SDS011;57063;51.406;-2.402;2023-07-13T05:30:13;6.28;;;2.22;;
48881;SDS011;57063;51.406;-2.402;2023-07-13T05:32:39;6.13;;;2.15;;
48881;SDS011;57063;51.406;-2.402;2023-07-13T05:35:05;9.38;;;2.17;;
48881;SDS011;57063;51.406;-2.402;2023-07-13T05:37:31;6.18;;;1.80;;
48881;SDS011;57063;51.406;-2.402;2023-07-13T05:39:56;5.90;;;2.05;;
48881;SDS011;57063;51.406;-2.402;2023-07-13T05:42:22;3.80;;;1.38;;
48881;SDS011;57063;51.406;-2.402;2023-07-13T05:44:47;7.78;;;1.92;;
48881;SDS011;57063;51.406;-2.402;2023-07-13T05:47:12;7.40;;;1.98;;
48881;SDS011;57063;51.406;-2.402;2023-07-13T05:49:39;4.68;;;1.77;;
48881;SDS011;57063;51.406;-2.402;2023-07-13T05:52:05;5.43;;;1.48;;
48881;SDS011;57063;51.406;-2.402;2023-07-13T05:54:31;5.35;;;1.63;;
48881;SDS011;57063;51.406;-2.402;2023-07-13T05:56:56;5.85;;;1.48;;
48881;SDS011;57063;51.406;-2.402;2023-07-13T05:59:21;6.20;;;1.70;;
48881;SDS011;57063;51.406;-2.402;2023-07-13T06:01:47;4.25;;;1.80;;
48881;SDS011;57063;51.406;-2.402;2023-07-13T06:04:12;7.25;;;2.33;;
48881;SDS011;57063;51.406;-2.402;2023-07-13T06:06:38;4.97;;;1.95;;
48881;SDS011;57063;51.406;-2.402;2023-07-13T06:09:03;7.45;;;1.70;;
48881;SDS011;57063;51.406;-2.402;2023-07-13T06:11:28;4.72;;;1.92;;
48881;SDS011;57063;51.406;-2.402;2023-07-13T06:13:55;4.45;;;1.60;;
48881;SDS011;57063;51.406;-2.402;2023-07-13T06:16:21;5.43;;;1.90;;
48881;SDS011;57063;51.406;-2.402;2023-07-13T06:18:46;4.47;;;1.67;;
48881;SDS011;57063;51.406;-2.402;2023-07-13T06:21:13;5.50;;;1.65;;
48881;SDS011;57063;51.406;-2.402;2023-07-13T06:23:43;6.32;;;2.53;;
48881;SDS011;57063;51.406;-2.402;2023-07-13T06:26:09;5.10;;;1.58;;
48881;SDS011;57063;51.406;-2.402;2023-07-13T06:28:36;6.60;;;2.22;;
48881;SDS011;57063;51.406;-2.402;2023-07-13T06:31:04;5.60;;;1.42;;
48881;SDS011;57063;51.406;-2.402;2023-07-13T06:33:31;3.90;;;1.83;;
48881;SDS011;57063;51.406;-2.402;2023-07-13T06:35:56;3.85;;;1.60;;
48881;SDS011;57063;51.406;-2.402;2023-07-13T06:38:21;5.90;;;1.42;;
48881;SDS011;57063;51.406;-2.402;2023-07-13T06:40:47;5.60;;;1.70;;
48881;SDS011;57063;51.406;-2.402;2023-07-13T06:43:12;5.93;;;1.40;;
48881;SDS011;57063;51.406;-2.402;2023-07-13T06:45:42;4.82;;;1.70;;
48881;SDS011;57063;51.406;-2.402;2023-07-13T06:48:11;5.97;;;1.60;;
48881;SDS011;57063;51.406;-2.402;2023-07-13T06:50:36;6.95;;;1.80;;
48881;SDS011;57063;51.406;-2.402;2023-07-13T06:53:02;3.53;;;1.83;;
48881;SDS011;57063;51.406;-2.402;2023-07-13T06:55:27;4.47;;;1.38;;
48881;SDS011;57063;51.406;-2.402;2023-07-13T06:57:52;5.65;;;1.65;;
48881;SDS011;57063;51.406;-2.402;2023-07-13T07:00:18;3.42;;;1.10;;
48881;SDS011;57063;51.406;-2.402;2023-07-13T07:02:43;6.43;;;1.42;;
48881;SDS011;57063;51.406;-2.402;2023-07-13T07:05:09;3.58;;;0.88;;
48881;SDS011;57063;51.406;-2.402;2023-07-13T07:07:34;4.82;;;1.25;;
48881;SDS011;57063;51.406;-2.402;2023-07-13T07:10:00;16.42;;;2.67;;
48881;SDS011;57063;51.406;-2.402;2023-07-13T07:12:26;22.48;;;3.10;;
48881;SDS011;57063;51.406;-2.402;2023-07-13T07:14:51;10.25;;;2.28;;
48881;SDS011;57063;51.406;-2.402;2023-07-13T07:17:16;4.75;;;1.60;;
48881;SDS011;57063;51.406;-2.402;2023-07-13T07:19:42;3.38;;;1.30;;
48881;SDS011;57063;51.406;-2.402;2023-07-13T07:22:07;4.40;;;1.02;;
48881;SDS011;57063;51.406;-2.402;2023-07-13T07:24:33;6.25;;;1.70;;
48881;SDS011;57063;51.406;-2.402;2023-07-13T07:26:58;4.68;;;1.48;;
48881;SDS011;57063;51.406;-2.402;2023-07-13T07:29:23;2.85;;;1.30;;
48881;SDS011;57063;51.406;-2.402;2023-07-13T07:31:51;4.18;;;1.60;;
48881;SDS011;57063;51.406;-2.402;2023-07-13T07:34:17;5.00;;;1.30;;
48881;SDS011;57063;51.406;-2.402;2023-07-13T07:36:42;3.17;;;1.00;;
48881;SDS011;57063;51.406;-2.402;2023-07-13T07:39:07;9.75;;;1.20;;
48881;SDS011;57063;51.406;-2.402;2023-07-13T07:41:33;3.80;;;0.95;;
48881;SDS011;57063;51.406;-2.402;2023-07-13T07:43:58;5.35;;;1.15;;
48881;SDS011;57063;51.406;-2.402;2023-07-13T07:46:23;3.67;;;1.10;;
48881;SDS011;57063;51.406;-2.402;2023-07-13T07:48:49;3.47;;;1.23;;
48881;SDS011;57063;51.406;-2.402;2023-07-13T07:51:14;2.15;;;1.17;;
48881;SDS011;57063;51.406;-2.402;2023-07-13T07:53:40;2.92;;;1.52;;
48881;SDS011;57063;51.406;-2.402;2023-07-13T07:56:05;4.53;;;1.40;;
48881;SDS011;57063;51.406;-2.402;2023-07-13T07:58:31;5.28;;;1.55;;
48881;SDS011;57063;51.406;-2.402;2023-07-13T08:01:03;3.50;;;0.98;;
48881;SDS011;57063;51.406;-2.402;2023-07-13T08:03:30;2.47;;;1.05;;
48881;SDS011;57063;51.406;-2.402;2023-07-13T08:05:55;4.25;;;1.40;;
48881;SDS011;57063;51.406;-2.402;2023-07-13T08:08:20;2.22;;;0.90;;
48881;SDS011;57063;51.406;-2.402;2023-07-13T08:10:46;6.22;;;1.50;;
48881;SDS011;57063;51.406;-2.402;2023-07-13T08:13:11;3.45;;;1.00;;
48881;SDS011;57063;51.406;-2.402;2023-07-13T08:15:37;3.17;;;1.48;;
48881;SDS011;57063;51.406;-2.402;2023-07-13T08:18:02;5.57;;;1.17;;
48881;SDS011;57063;51.406;-2.402;2023-07-13T08:20:28;5.88;;;1.63;;
48881;SDS011;57063;51.406;-2.402;2023-07-13T08:22:53;2.55;;;2.00;;
48881;SDS011;57063;51.406;-2.402;2023-07-13T08:25:18;4.32;;;1.38;;
48881;SDS011;57063;51.406;-2.402;2023-07-13T08:27:45;2.35;;;0.98;;
48881;SDS011;57063;51.406;-2.402;2023-07-13T08:30:11;5.70;;;1.33;;
48881;SDS011;57063;51.406;-2.402;2023-07-13T08:32:36;2.80;;;0.90;;
48881;SDS011;57063;51.406;-2.402;2023-07-13T08:35:02;3.13;;;1.17;;
48881;SDS011;57063;51.406;-2.402;2023-07-13T08:37:28;2.60;;;0.88;;
48881;SDS011;57063;51.406;-2.402;2023-07-13T08:39:54;4.88;;;1.92;;
48881;SDS011;57063;51.406;-2.402;2023-07-13T08:47:40;4.00;;;1.17;;
48881;SDS011;57063;51.406;-2.402;2023-07-13T08:50:13;3.05;;;1.15;;
48881;SDS011;57063;51.406;-2.402;2023-07-13T08:52:42;1.13;;;0.80;;
48881;SDS011;57063;51.406;-2.402;2023-07-13T08:55:13;3.50;;;1.20;;
48881;SDS011;57063;51.406;-2.402;2023-07-13T08:57:42;3.47;;;1.00;;
48881;SDS011;57063;51.406;-2.402;2023-07-13T09:00:11;5.18;;;1.27;;
48881;SDS011;57063;51.406;-2.402;2023-07-13T09:02:52;5.55;;;1.27;;
48881;SDS011;57063;51.406;-2.402;2023-07-13T09:11:05;8.38;;;2.72;;
48881;SDS011;57063;51.406;-2.402;2023-07-13T09:17:03;8.50;;;0.75;;
48881;SDS011;57063;51.406;-2.402;2023-07-13T09:19:33;0.85;;;0.55;;
48881;SDS011;57063;51.406;-2.402;2023-07-13T09:22:01;1.83;;;0.80;;
48881;SDS011;57063;51.406;-2.402;2023-07-13T09:27:21;3.40;;;1.23;;
48881;SDS011;57063;51.406;-2.402;2023-07-13T09:29:50;2.20;;;1.00;;
48881;SDS011;57063;51.406;-2.402;2023-07-13T09:32:22;2.70;;;0.75;;
48881;SDS011;57063;51.406;-2.402;2023-07-13T09:34:54;3.75;;;0.95;;
48881;SDS011;57063;51.406;-2.402;2023-07-13T09:37:21;1.83;;;0.80;;
48881;SDS011;57063;51.406;-2.402;2023-07-13T09:39:52;2.80;;;0.80;;
48881;SDS011;57063;51.406;-2.402;2023-07-13T09:42:19;2.22;;;0.90;;
48881;SDS011;57063;51.406;-2.402;2023-07-13T09:47:27;4.63;;;0.70;;
48881;SDS011;57063;51.406;-2.402;2023-07-13T09:49:56;3.97;;;0.95;;
48881;SDS011;57063;51.406;-2.402;2023-07-13T09:52:23;1.75;;;0.68;;
48881;SDS011;57063;51.406;-2.402;2023-07-13T09:54:50;4.25;;;0.70;;
48881;SDS011;57063;51.406;-2.402;2023-07-13T09:57:19;1.00;;;0.50;;
48881;SDS011;57063;51.406;-2.402;2023-07-13T09:59:49;0.93;;;0.50;;
48881;SDS011;57063;51.406;-2.402;2023-07-13T10:04:56;1.80;;;0.50;;
48881;SDS011;57063;51.406;-2.402;2023-07-13T10:09:55;1.55;;;0.60;;
48881;SDS011;57063;51.406;-2.402;2023-07-13T10:12:22;2.80;;;0.60;;
48881;SDS011;57063;51.406;-2.402;2023-07-13T10:14:54;2.38;;;0.70;;
48881;SDS011;57063;51.406;-2.402;2023-07-13T10:17:25;1.85;;;0.70;;
48881;SDS011;57063;51.406;-2.402;2023-07-13T10:19:56;0.65;;;0.52;;
48881;SDS011;57063;51.406;-2.402;2023-07-13T10:22:31;1.80;;;0.50;;
48881;SDS011;57063;51.406;-2.402;2023-07-13T10:25:15;2.47;;;0.90;;
48881;SDS011;57063;51.406;-2.402;2023-07-13T10:27:43;1.10;;;0.70;;
48881;SDS011;57063;51.406;-2.402;2023-07-13T10:30:14;1.15;;;0.50;;
48881;SDS011;57063;51.406;-2.402;2023-07-13T10:32:44;2.15;;;0.57;;
48881;SDS011;57063;51.406;-2.402;2023-07-13T10:35:12;5.15;;;0.63;;
48881;SDS011;57063;51.406;-2.402;2023-07-13T10:37:50;3.28;;;0.73;;
48881;SDS011;57063;51.406;-2.402;2023-07-13T10:40:29;3.80;;;1.10;;
48881;SDS011;57063;51.406;-2.402;2023-07-13T10:42:59;3.42;;;0.85;;
48881;SDS011;57063;51.406;-2.402;2023-07-13T10:45:27;1.33;;;0.55;;
48881;SDS011;57063;51.406;-2.402;2023-07-13T10:47:55;2.40;;;1.33;;
48881;SDS011;57063;51.406;-2.402;2023-07-13T10:50:22;1.88;;;0.70;;
48881;SDS011;57063;51.406;-2.402;2023-07-13T10:52:54;1.38;;;0.55;;
48881;SDS011;57063;51.406;-2.402;2023-07-13T10:55:36;1.10;;;0.40;;
48881;SDS011;57063;51.406;-2.402;2023-07-13T10:58:20;0.70;;;0.40;;
48881;SDS011;57063;51.406;-2.402;2023-07-13T11:01:29;2.08;;;0.60;;
48881;SDS011;57063;51.406;-2.402;2023-07-13T11:08:38;3.13;;;0.75;;
48881;SDS011;57063;51.406;-2.402;2023-07-13T11:11:36;2.75;;;0.73;;
48881;SDS011;57063;51.406;-2.402;2023-07-13T11:14:04;1.65;;;0.80;;
48881;SDS011;57063;51.406;-2.402;2023-07-13T11:16:50;3.55;;;0.98;;
48881;SDS011;57063;51.406;-2.402;2023-07-13T11:24:50;2.55;;;0.63;;
48881;SDS011;57063;51.406;-2.402;2023-07-13T11:27:34;1.60;;;0.50;;
48881;SDS011;57063;51.406;-2.402;2023-07-13T11:30:23;3.65;;;0.60;;
48881;SDS011;57063;51.406;-2.402;2023-07-13T11:33:16;3.90;;;0.80;;
48881;SDS011;57063;51.406;-2.402;2023-07-13T11:41:19;1.85;;;0.60;;
48881;SDS011;57063;51.406;-2.402;2023-07-13T11:44:05;3.10;;;1.05;;
48881;SDS011;57063;51.406;-2.402;2023-07-13T11:46:35;2.38;;;0.60;;
48881;SDS011;57063;51.406;-2.402;2023-07-13T11:49:01;9.27;;;0.70;;
48881;SDS011;57063;51.406;-2.402;2023-07-13T11:51:31;2.78;;;0.60;;
48881;SDS011;57063;51.406;-2.402;2023-07-13T11:54:06;1.75;;;0.80;;
48881;SDS011;57063;51.406;-2.402;2023-07-13T11:56:44;2.92;;;0.77;;
48881;SDS011;57063;51.406;-2.402;2023-07-13T11:59:11;3.47;;;0.75;;
48881;SDS011;57063;51.406;-2.402;2023-07-13T12:01:42;1.60;;;0.60;;
48881;SDS011;57063;51.406;-2.402;2023-07-13T12:04:21;0.88;;;0.50;;
48881;SDS011;57063;51.406;-2.402;2023-07-13T12:06:54;2.22;;;0.70;;
48881;SDS011;57063;51.406;-2.402;2023-07-13T12:09:40;4.25;;;0.63;;
48881;SDS011;57063;51.406;-2.402;2023-07-13T12:12:28;3.97;;;0.70;;
48881;SDS011;57063;51.406;-2.402;2023-07-13T12:14:55;2.60;;;0.98;;
48881;SDS011;57063;51.406;-2.402;2023-07-13T12:17:21;2.13;;;0.60;;
48881;SDS011;57063;51.406;-2.402;2023-07-13T12:19:49;1.85;;;0.50;;
48881;SDS011;57063;51.406;-2.402;2023-07-13T12:22:16;2.40;;;0.70;;
48881;SDS011;57063;51.406;-2.402;2023-07-13T12:24:44;2.20;;;0.73;;
48881;SDS011;57063;51.406;-2.402;2023-07-13T12:27:17;3.13;;;0.50;;
48881;SDS011;57063;51.406;-2.402;2023-07-13T12:29:56;3.70;;;1.48;;
48881;SDS011;57063;51.406;-2.402;2023-07-13T12:32:24;2.05;;;0.30;;
48881;SDS011;57063;51.406;-2.402;2023-07-13T12:35:01;1.50;;;0.70;;
48881;SDS011;57063;51.406;-2.402;2023-07-13T12:37:41;3.42;;;0.60;;
48881;SDS011;57063;51.406;-2.402;2023-07-13T12:40:14;2.45;;;0.70;;
48881;SDS011;57063;51.406;-2.402;2023-07-13T12:42:43;4.87;;;0.73;;
48881;SDS011;57063;51.406;-2.402;2023-07-13T12:47:52;3.38;;;0.52;;
48881;SDS011;57063;51.406;-2.402;2023-07-13T12:50:21;1.48;;;0.43;;
48881;SDS011;57063;51.406;-2.402;2023-07-13T12:52:51;1.50;;;0.35;;
48881;SDS011;57063;51.406;-2.402;2023-07-13T12:55:19;0.50;;;0.30;;
48881;SDS011;57063;51.406;-2.402;2023-07-13T12:57:50;1.83;;;0.65;;
48881;SDS011;57063;51.406;-2.402;2023-07-13T13:00:33;1.75;;;0.50;;
48881;SDS011;57063;51.406;-2.402;2023-07-13T13:06:01;10.93;;;0.82;;
48881;SDS011;57063;51.406;-2.402;2023-07-13T13:08:35;2.38;;;0.65;;
48881;SDS011;57063;51.406;-2.402;2023-07-13T13:11:02;3.67;;;1.10;;
48881;SDS011;57063;51.406;-2.402;2023-07-13T13:13:28;6.70;;;1.50;;
48881;SDS011;57063;51.406;-2.402;2023-07-13T13:15:53;5.18;;;1.00;;
48881;SDS011;57063;51.406;-2.402;2023-07-13T13:18:20;3.08;;;0.90;;
48881;SDS011;57063;51.406;-2.402;2023-07-13T13:20:51;7.60;;;1.98;;
48881;SDS011;57063;51.406;-2.402;2023-07-13T13:23:18;3.85;;;1.00;;
48881;SDS011;57063;51.406;-2.402;2023-07-13T13:25:49;5.20;;;0.70;;
48881;SDS011;57063;51.406;-2.402;2023-07-13T13:28:17;8.02;;;0.90;;
48881;SDS011;57063;51.406;-2.402;2023-07-13T13:30:44;5.97;;;1.33;;
48881;SDS011;57063;51.406;-2.402;2023-07-13T13:33:12;4.65;;;0.70;;
48881;SDS011;57063;51.406;-2.402;2023-07-13T13:35:40;3.05;;;0.85;;
48881;SDS011;57063;51.406;-2.402;2023-07-13T13:38:13;3.47;;;1.33;;
48881;SDS011;57063;51.406;-2.402;2023-07-13T13:40:42;2.75;;;0.90;;
48881;SDS011;57063;51.406;-2.402;2023-07-13T13:43:21;2.70;;;0.77;;
48881;SDS011;57063;51.406;-2.402;2023-07-13T13:48:17;3.15;;;1.00;;
48881;SDS011;57063;51.406;-2.402;2023-07-13T13:50:44;2.97;;;0.80;;
48881;SDS011;57063;51.406;-2.402;2023-07-13T13:53:10;3.95;;;0.95;;
48881;SDS011;57063;51.406;-2.402;2023-07-13T13:55:38;2.22;;;0.80;;
48881;SDS011;57063;51.406;-2.402;2023-07-13T13:58:03;5.90;;;1.77;;
48881;SDS011;57063;51.406;-2.402;2023-07-13T14:00:29;2.50;;;0.68;;
48881;SDS011;57063;51.406;-2.402;2023-07-13T14:02:55;4.47;;;0.80;;
48881;SDS011;57063;51.406;-2.402;2023-07-13T14:05:23;5.10;;;1.08;;
48881;SDS011;57063;51.406;-2.402;2023-07-13T14:07:51;4.38;;;1.10;;
48881;SDS011;57063;51.406;-2.402;2023-07-13T14:10:18;3.33;;;0.90;;
48881;SDS011;57063;51.406;-2.402;2023-07-13T14:12:45;5.38;;;0.77;;
48881;SDS011;57063;51.406;-2.402;2023-07-13T14:15:17;2.55;;;0.93;;
48881;SDS011;57063;51.406;-2.402;2023-07-13T14:17:53;1.73;;;0.63;;
48881;SDS011;57063;51.406;-2.402;2023-07-13T14:20:20;3.22;;;0.80;;
48881;SDS011;57063;51.406;-2.402;2023-07-13T14:22:49;2.80;;;1.10;;
48881;SDS011;57063;51.406;-2.402;2023-07-13T14:25:15;2.75;;;1.20;;
48881;SDS011;57063;51.406;-2.402;2023-07-13T14:27:42;7.45;;;1.02;;
48881;SDS011;57063;51.406;-2.402;2023-07-13T14:32:42;5.95;;;1.30;;
48881;SDS011;57063;51.406;-2.402;2023-07-13T14:35:12;4.10;;;1.33;;
48881;SDS011;57063;51.406;-2.402;2023-07-13T14:37:41;5.15;;;1.58;;
48881;SDS011;57063;51.406;-2.402;2023-07-13T14:40:14;6.00;;;1.98;;
48881;SDS011;57063;51.406;-2.402;2023-07-13T14:42:41;4.40;;;1.98;;
48881;SDS011;57063;51.406;-2.402;2023-07-13T14:45:14;4.78;;;1.77;;
48881;SDS011;57063;51.406;-2.402;2023-07-13T14:47:41;4.18;;;1.70;;
48881;SDS011;57063;51.406;-2.402;2023-07-13T14:50:12;2.97;;;1.35;;
48881;SDS011;57063;51.406;-2.402;2023-07-13T14:52:39;4.97;;;1.88;;
48881;SDS011;57063;51.406;-2.402;2023-07-13T14:55:08;5.05;;;1.65;;
48881;SDS011;57063;51.406;-2.402;2023-07-13T14:57:35;3.00;;;1.30;;
48881;SDS011;57063;51.406;-2.402;2023-07-13T15:00:00;4.18;;;1.20;;
48881;SDS011;57063;51.406;-2.402;2023-07-13T15:02:30;3.95;;;1.33;;
48881;SDS011;57063;51.406;-2.402;2023-07-13T15:04:58;4.00;;;1.40;;
48881;SDS011;57063;51.406;-2.402;2023-07-13T15:07:25;4.85;;;1.83;;
48881;SDS011;57063;51.406;-2.402;2023-07-13T15:09:50;6.38;;;1.45;;
48881;SDS011;57063;51.406;-2.402;2023-07-13T15:12:16;6.43;;;1.50;;
48881;SDS011;57063;51.406;-2.402;2023-07-13T15:14:42;4.40;;;1.02;;
48881;SDS011;57063;51.406;-2.402;2023-07-13T15:17:41;4.63;;;1.13;;
48881;SDS011;57063;51.406;-2.402;2023-07-13T15:20:06;5.95;;;1.27;;
48881;SDS011;57063;51.406;-2.402;2023-07-13T15:22:57;5.30;;;1.30;;
48881;SDS011;57063;51.406;-2.402;2023-07-13T15:25:24;4.55;;;1.70;;
48881;SDS011;57063;51.406;-2.402;2023-07-13T15:27:54;4.90;;;1.23;;
48881;SDS011;57063;51.406;-2.402;2023-07-13T15:30:21;5.90;;;1.50;;
48881;SDS011;57063;51.406;-2.402;2023-07-13T15:32:47;1.52;;;0.93;;
48881;SDS011;57063;51.406;-2.402;2023-07-13T15:35:20;3.65;;;1.20;;